createdAt,value
2023-03-07T00:00:19.613Z,5.43
2023-03-07T00:03:09.103Z,5.44
2023-03-07T00:05:37.011Z,5.42
2023-03-07T00:08:05.375Z,5.36
2023-03-07T00:10:33.696Z,5.34
2023-03-07T00:13:01.685Z,5.34
2023-03-07T00:15:30.482Z,5.33
2023-03-07T00:17:58.837Z,5.32
2023-03-07T00:20:26.924Z,5.28
2023-03-07T00:22:54.731Z,5.25
2023-03-07T00:25:22.570Z,5.22
2023-03-07T00:27:50.327Z,5.18
2023-03-07T00:30:18.305Z,5.17
2023-03-07T00:32:46.092Z,5.15
2023-03-07T00:35:13.906Z,5.13
2023-03-07T00:37:41.741Z,5.08
2023-03-07T00:40:10.583Z,5.04
2023-03-07T00:42:38.344Z,5.09
2023-03-07T00:45:06.866Z,5.12
2023-03-07T00:47:34.659Z,5.09
2023-03-07T00:50:02.496Z,5.06
2023-03-07T00:52:30.334Z,5.02
2023-03-07T00:54:58.456Z,4.99
2023-03-07T00:57:26.302Z,4.94
2023-03-07T00:59:54.101Z,4.81
2023-03-07T01:02:22.137Z,4.72
2023-03-07T01:04:50.073Z,4.64
2023-03-07T01:07:17.922Z,4.60
2023-03-07T01:09:47.245Z,4.49
2023-03-07T01:12:15.081Z,4.41
2023-03-07T01:14:42.977Z,4.36
2023-03-07T01:17:10.771Z,4.22
2023-03-07T01:19:38.611Z,3.98
2023-03-07T01:22:06.595Z,3.85
2023-03-07T01:24:34.497Z,3.75
2023-03-07T01:27:02.440Z,3.62
2023-03-07T01:29:30.230Z,3.51
2023-03-07T01:31:58.212Z,3.44
2023-03-07T01:34:26.237Z,3.37
2023-03-07T01:36:54.079Z,3.30
2023-03-07T01:39:21.936Z,3.27
2023-03-07T01:41:59.490Z,3.26
2023-03-07T01:44:29.673Z,3.25
2023-03-07T01:47:00.532Z,3.24
2023-03-07T01:49:49.076Z,3.21
2023-03-07T01:52:41.846Z,3.17
2023-03-07T01:55:19.484Z,3.12
2023-03-07T01:57:52.131Z,3.10
2023-03-07T02:00:29.817Z,3.09
2023-03-07T02:03:26.187Z,3.01
2023-03-07T02:05:59.880Z,2.97
2023-03-07T02:08:30.784Z,2.94
2023-03-07T02:10:58.693Z,2.93
2023-03-07T02:13:26.591Z,2.92
2023-03-07T02:15:56.124Z,2.91
2023-03-07T02:18:28.470Z,2.92
2023-03-07T02:21:09.458Z,2.90
2023-03-07T02:24:19.248Z,2.84
2023-03-07T02:26:51.014Z,2.78
2023-03-07T02:29:20.198Z,2.78
2023-03-07T02:31:48.462Z,2.81
2023-03-07T02:34:27.696Z,2.82
2023-03-07T02:37:37.089Z,2.79
2023-03-07T02:40:10.360Z,2.77
2023-03-07T02:42:42.749Z,2.72
2023-03-07T02:45:17.970Z,2.67
2023-03-07T02:47:46.503Z,2.69
2023-03-07T02:50:17.388Z,2.72
2023-03-07T02:52:47.715Z,2.66
2023-03-07T02:55:16.310Z,2.65
2023-03-07T02:57:49.029Z,2.68
2023-03-07T03:00:17.612Z,2.72
2023-03-07T03:02:46.048Z,2.71
2023-03-07T03:05:13.999Z,2.70
2023-03-07T03:07:41.821Z,2.71
2023-03-07T03:10:10.733Z,2.69
2023-03-07T03:12:38.713Z,2.67
2023-03-07T03:15:07.906Z,2.67
2023-03-07T03:17:36.128Z,2.67
2023-03-07T03:20:07.649Z,2.62
2023-03-07T03:22:37.725Z,2.60
2023-03-07T03:25:09.965Z,2.58
2023-03-07T03:27:39.273Z,2.58
2023-03-07T03:30:11.086Z,2.57
2023-03-07T03:32:39.653Z,2.52
2023-03-07T03:35:08.501Z,2.53
2023-03-07T03:37:36.682Z,2.51
2023-03-07T03:40:14.097Z,2.54
2023-03-07T03:42:44.162Z,2.57
2023-03-07T03:45:14.944Z,2.51
2023-03-07T03:47:43.024Z,2.47
2023-03-07T03:50:11.482Z,2.50
2023-03-07T03:52:40.280Z,2.48
2023-03-07T03:55:09.023Z,2.50
2023-03-07T03:57:36.844Z,2.50
2023-03-07T04:00:06.016Z,2.49
2023-03-07T04:02:40.471Z,2.55
2023-03-07T04:05:10.171Z,2.59
2023-03-07T04:07:37.988Z,2.60
2023-03-07T04:10:06.758Z,2.61
2023-03-07T04:12:34.964Z,2.59
2023-03-07T04:15:02.812Z,2.61
2023-03-07T04:17:30.618Z,2.62
2023-03-07T04:19:58.839Z,2.61
2023-03-07T04:22:26.801Z,2.60
2023-03-07T04:24:55.135Z,2.59
2023-03-07T04:27:23.014Z,2.55
2023-03-07T04:29:50.811Z,2.58
2023-03-07T04:32:21.835Z,2.57
2023-03-07T04:34:50.331Z,2.52
2023-03-07T04:37:18.144Z,2.54
2023-03-07T04:39:45.997Z,2.56
2023-03-07T04:42:14.357Z,2.58
2023-03-07T04:44:42.219Z,2.63
2023-03-07T04:47:10.156Z,2.70
2023-03-07T04:49:38.734Z,2.70
2023-03-07T04:52:07.647Z,2.68
2023-03-07T04:54:35.706Z,2.64
2023-03-07T04:57:04.546Z,2.58
2023-03-07T04:59:32.656Z,2.52
2023-03-07T05:02:00.503Z,2.52
2023-03-07T05:04:28.697Z,2.51
2023-03-07T05:06:56.590Z,2.55
2023-03-07T05:09:24.540Z,2.64
2023-03-07T05:11:53.694Z,2.66
2023-03-07T05:14:22.844Z,2.64
2023-03-07T05:16:50.754Z,2.63
2023-03-07T05:19:19.251Z,2.65
2023-03-07T05:21:49.267Z,2.69
2023-03-07T05:24:17.439Z,2.70
2023-03-07T05:26:45.240Z,2.69
2023-03-07T05:29:13.140Z,2.69
2023-03-07T05:31:41.075Z,2.68
2023-03-07T05:34:10.805Z,2.70
2023-03-07T05:36:39.382Z,2.67
2023-03-07T05:39:07.728Z,2.68
2023-03-07T05:41:36.820Z,2.74
2023-03-07T05:44:05.017Z,2.78
2023-03-07T05:46:33.262Z,2.78
2023-03-07T05:49:01.430Z,2.77
2023-03-07T05:51:29.337Z,2.78
2023-03-07T05:53:57.221Z,2.76
2023-03-07T05:56:25.168Z,2.77
2023-03-07T05:58:53.007Z,2.78
2023-03-07T06:01:20.915Z,2.81
2023-03-07T06:03:48.861Z,2.85
2023-03-07T06:06:16.854Z,2.81
2023-03-07T06:08:44.808Z,2.78
2023-03-07T06:11:12.630Z,2.75
2023-03-07T06:13:40.505Z,2.76
2023-03-07T06:16:08.382Z,2.77
2023-03-07T06:18:36.577Z,2.77
2023-03-07T06:21:07.349Z,2.78
2023-03-07T06:23:39.145Z,2.75
2023-03-07T06:26:12.474Z,2.73
2023-03-07T06:28:42.117Z,2.77
2023-03-07T06:31:18.139Z,2.73
2023-03-07T06:33:47.726Z,2.68
2023-03-07T06:36:18.653Z,2.64
2023-03-07T06:38:49.117Z,2.62
2023-03-07T06:41:17.091Z,2.61
2023-03-07T06:43:44.868Z,2.60
2023-03-07T06:46:13.136Z,2.66
2023-03-07T06:48:42.281Z,2.73
2023-03-07T06:51:12.900Z,2.69
2023-03-07T06:53:42.270Z,2.67
2023-03-07T06:56:10.377Z,2.63
2023-03-07T06:58:38.717Z,2.66
2023-03-07T07:01:07.019Z,2.65
2023-03-07T07:03:36.064Z,2.65
2023-03-07T07:06:04.237Z,2.66
2023-03-07T07:08:32.449Z,2.67
2023-03-07T07:11:00.244Z,2.69
2023-03-07T07:13:28.337Z,2.72
2023-03-07T07:15:56.516Z,2.74
2023-03-07T07:18:24.961Z,2.77
2023-03-07T07:20:56.004Z,2.80
2023-03-07T07:23:25.053Z,2.80
2023-03-07T07:25:53.704Z,2.82
2023-03-07T07:28:21.929Z,2.86
2023-03-07T07:30:49.735Z,2.87
2023-03-07T07:33:17.769Z,2.88
2023-03-07T07:35:48.128Z,2.93
2023-03-07T07:38:16.092Z,2.94
2023-03-07T07:40:45.035Z,3.00
2023-03-07T07:43:17.851Z,3.05
2023-03-07T07:45:56.626Z,3.08
2023-03-07T07:48:25.569Z,3.14
2023-03-07T07:50:54.001Z,3.19
2023-03-07T07:53:22.053Z,3.25
2023-03-07T07:55:49.957Z,3.29
2023-03-07T07:58:18.030Z,3.38
2023-03-07T08:00:47.471Z,3.46
2023-03-07T08:03:15.383Z,3.54
2023-03-07T08:05:48.596Z,3.59
2023-03-07T08:08:18.941Z,3.59
2023-03-07T08:10:47.690Z,3.54
2023-03-07T08:13:17.922Z,3.57
2023-03-07T08:15:45.793Z,3.65
2023-03-07T08:18:13.868Z,3.73
2023-03-07T08:20:41.666Z,3.79
2023-03-07T08:23:09.647Z,3.80
2023-03-07T08:25:38.057Z,3.79
2023-03-07T08:28:06.085Z,3.79
2023-03-07T08:30:35.870Z,3.84
2023-03-07T08:33:03.826Z,3.92
2023-03-07T08:35:32.127Z,3.95
2023-03-07T08:38:00.698Z,3.96
2023-03-07T08:40:30.955Z,3.99
2023-03-07T08:42:59.711Z,3.98
2023-03-07T08:45:27.504Z,3.99
2023-03-07T08:47:56.972Z,3.95
2023-03-07T08:50:28.423Z,3.98
2023-03-07T08:52:57.667Z,4.03
2023-03-07T08:55:25.505Z,4.06
2023-03-07T08:57:53.294Z,4.09
2023-03-07T09:00:21.301Z,4.22
2023-03-07T09:02:49.087Z,4.33
2023-03-07T09:05:16.917Z,4.36
2023-03-07T09:07:44.728Z,4.44
2023-03-07T09:10:12.584Z,4.52
2023-03-07T09:12:40.376Z,4.61
2023-03-07T09:15:09.218Z,4.72
2023-03-07T09:17:37.164Z,4.72
2023-03-07T09:20:08.858Z,4.74
2023-03-07T09:22:36.685Z,4.77
2023-03-07T09:25:05.138Z,4.87
2023-03-07T09:27:32.920Z,4.86
2023-03-07T09:30:00.740Z,4.84
2023-03-07T09:32:28.652Z,4.85
2023-03-07T09:34:56.937Z,4.86
2023-03-07T09:37:24.692Z,4.86
2023-03-07T09:39:52.521Z,4.87
2023-03-07T09:43:11.086Z,4.89
2023-03-07T09:45:46.117Z,4.91
2023-03-07T09:48:47.951Z,4.95
2023-03-07T09:51:23.185Z,4.93
2023-03-07T09:54:23.370Z,4.95
2023-03-07T09:57:00.471Z,4.88
2023-03-07T09:59:43.527Z,4.93
2023-03-07T10:02:25.180Z,4.90
2023-03-07T10:04:56.489Z,4.89
2023-03-07T10:07:26.889Z,4.89
2023-03-07T10:10:01.625Z,4.89
2023-03-07T10:13:09.799Z,4.98
2023-03-07T10:15:56.639Z,5.01
2023-03-07T10:18:50.533Z,5.10
2023-03-07T10:21:33.139Z,5.09
2023-03-07T10:24:33.788Z,5.11
2023-03-07T10:27:12.768Z,5.06
2023-03-07T10:29:50.786Z,5.12
2023-03-07T10:32:36.902Z,5.25
2023-03-07T10:35:21.808Z,5.42
2023-03-07T10:37:56.874Z,5.58
2023-03-07T10:40:45.243Z,5.70
2023-03-07T10:43:29.929Z,5.62
2023-03-07T10:46:27.857Z,5.64
2023-03-07T10:49:20.259Z,5.73
2023-03-07T10:52:04.558Z,5.77
2023-03-07T10:54:37.996Z,5.72
2023-03-07T10:57:16.511Z,5.66
2023-03-07T10:59:50.407Z,5.75
2023-03-07T11:02:47.511Z,5.87
2023-03-07T11:05:31.847Z,5.91
2023-03-07T11:08:02.109Z,5.95
2023-03-07T11:10:39.943Z,5.97
2023-03-07T11:13:21.312Z,5.95
2023-03-07T11:15:50.979Z,5.87
2023-03-07T11:18:44.703Z,5.90
2023-03-07T11:21:35.882Z,5.95
2023-03-07T11:24:25.598Z,6.02
2023-03-07T11:26:59.020Z,6.10
2023-03-07T11:29:28.532Z,6.12
2023-03-07T11:32:22.886Z,6.20
2023-03-07T11:35:08.063Z,6.24
2023-03-07T11:37:40.290Z,6.33
2023-03-07T11:40:22.978Z,6.33
2023-03-07T11:43:32.545Z,6.26
2023-03-07T11:46:17.521Z,6.34
2023-03-07T11:49:44.464Z,6.38
2023-03-07T11:52:36.667Z,6.29
2023-03-07T11:55:21.944Z,6.13
2023-03-07T11:58:21.334Z,6.19
2023-03-07T12:01:11.958Z,6.37
2023-03-07T12:04:13.400Z,6.39
2023-03-07T12:07:18.832Z,6.39
2023-03-07T12:09:52.579Z,6.40
2023-03-07T12:12:36.279Z,6.32
2023-03-07T12:15:41.453Z,6.23
2023-03-07T12:18:44.012Z,6.29
2023-03-07T12:21:45.704Z,6.27
2023-03-07T12:24:23.542Z,6.33
2023-03-07T12:27:19.632Z,6.38
2023-03-07T12:30:25.783Z,6.39
2023-03-07T12:32:55.215Z,6.49
2023-03-07T12:35:43.257Z,6.60
2023-03-07T12:38:28.855Z,6.69
2023-03-07T12:41:05.460Z,6.90
2023-03-07T12:43:45.836Z,7.03
2023-03-07T12:46:38.865Z,7.21
2023-03-07T12:49:25.791Z,7.36
2023-03-07T12:52:01.074Z,7.47
2023-03-07T12:54:50.140Z,7.47
2023-03-07T12:57:28.606Z,7.39
2023-03-07T13:00:04.450Z,7.34
2023-03-07T13:02:53.366Z,7.23
2023-03-07T13:05:22.150Z,6.93
2023-03-07T13:07:51.000Z,6.67
2023-03-07T13:10:23.000Z,6.28
2023-03-07T13:12:52.775Z,5.81
2023-03-07T13:15:23.175Z,5.47
2023-03-07T13:17:50.901Z,5.18
2023-03-07T13:20:27.537Z,4.88
2023-03-07T13:22:59.829Z,4.63
2023-03-07T13:25:27.936Z,4.36
2023-03-07T13:28:01.660Z,4.02
2023-03-07T13:30:36.290Z,3.90
2023-03-07T13:33:28.671Z,3.78
2023-03-07T13:36:00.735Z,3.75
2023-03-07T13:38:44.139Z,3.80
2023-03-07T13:41:13.761Z,3.87
2023-03-07T13:43:44.380Z,3.91
2023-03-07T13:46:46.810Z,4.02
2023-03-07T13:49:38.825Z,4.12
2023-03-07T13:52:37.861Z,4.20
2023-03-07T13:55:22.080Z,4.28
2023-03-07T13:57:50.774Z,4.33
2023-03-07T14:00:26.818Z,4.41
2023-03-07T14:02:55.970Z,4.51
2023-03-07T14:05:24.375Z,4.60
2023-03-07T14:07:53.395Z,4.74
2023-03-07T14:10:45.822Z,4.90
2023-03-07T14:13:49.351Z,5.04
2023-03-07T14:16:56.839Z,5.28
2023-03-07T14:20:28.860Z,5.41
2023-03-07T14:23:47.545Z,5.63
2023-03-07T14:26:40.483Z,5.84
2023-03-07T14:29:21.997Z,6.03
2023-03-07T14:31:54.786Z,6.18
2023-03-07T14:34:31.779Z,6.28
2023-03-07T14:37:22.134Z,6.35
2023-03-07T14:39:58.757Z,6.46
2023-03-07T14:43:06.242Z,6.49
2023-03-07T14:45:52.171Z,6.62
2023-03-07T14:48:52.861Z,6.74
2023-03-07T14:51:29.302Z,6.89
2023-03-07T14:53:58.277Z,6.99
2023-03-07T14:56:34.601Z,7.03
2023-03-07T14:59:04.894Z,7.12
2023-03-07T15:01:39.266Z,7.23
2023-03-07T15:04:33.158Z,7.36
2023-03-07T15:07:11.351Z,7.35
2023-03-07T15:09:39.865Z,7.12
2023-03-07T15:12:18.900Z,7.04
2023-03-07T15:14:55.031Z,6.93
2023-03-07T15:17:28.945Z,6.93
2023-03-07T15:20:11.183Z,6.76
2023-03-07T15:22:42.586Z,6.58
2023-03-07T15:25:25.713Z,6.59
2023-03-07T15:28:07.917Z,6.56
2023-03-07T15:30:38.303Z,6.47
2023-03-07T15:33:23.569Z,6.44
2023-03-07T15:36:14.366Z,6.43
2023-03-07T15:38:48.728Z,6.35
2023-03-07T15:41:34.622Z,6.27
2023-03-07T15:44:11.593Z,6.16
2023-03-07T15:46:48.465Z,6.07
2023-03-07T15:49:24.133Z,6.10
2023-03-07T15:51:57.028Z,6.20
2023-03-07T15:54:57.272Z,6.36
2023-03-07T15:57:40.371Z,6.48
2023-03-07T16:00:19.377Z,6.39
2023-03-07T16:02:50.393Z,6.26
2023-03-07T16:05:22.796Z,6.10
2023-03-07T16:07:56.356Z,6.00
2023-03-07T16:10:30.372Z,5.94
2023-03-07T16:13:00.802Z,5.92
2023-03-07T16:15:29.109Z,6.01
2023-03-07T16:17:57.183Z,6.16
2023-03-07T16:20:28.532Z,6.34
2023-03-07T16:22:57.546Z,6.48
2023-03-07T16:25:30.726Z,6.45
2023-03-07T16:27:59.543Z,6.39
2023-03-07T16:30:31.897Z,6.36
2023-03-07T16:32:59.813Z,6.34
2023-03-07T16:35:29.392Z,6.24
2023-03-07T16:37:57.245Z,6.12
2023-03-07T16:40:26.242Z,5.98
2023-03-07T16:42:54.789Z,5.87
2023-03-07T16:45:27.845Z,5.83
2023-03-07T16:48:02.209Z,5.77
2023-03-07T16:50:33.478Z,5.66
2023-03-07T16:53:01.278Z,5.61
2023-03-07T16:55:29.268Z,5.51
2023-03-07T16:58:04.516Z,5.39
2023-03-07T17:00:32.490Z,5.29
2023-03-07T17:03:03.262Z,5.28
2023-03-07T17:05:31.106Z,5.28
2023-03-07T17:07:59.290Z,5.32
2023-03-07T17:10:28.483Z,5.31
2023-03-07T17:12:57.971Z,5.29
2023-03-07T17:15:30.592Z,5.25
2023-03-07T17:18:00.463Z,5.27
2023-03-07T17:20:29.054Z,5.26
2023-03-07T17:22:57.034Z,5.16
2023-03-07T17:25:26.562Z,5.02
2023-03-07T17:28:11.957Z,4.89
2023-03-07T17:30:43.012Z,4.78
2023-03-07T17:33:12.081Z,4.63
2023-03-07T17:35:39.829Z,4.51
2023-03-07T17:38:07.947Z,4.40
2023-03-07T17:40:36.084Z,4.34
2023-03-07T17:43:04.775Z,4.24
2023-03-07T17:45:32.627Z,4.15
2023-03-07T17:48:00.513Z,4.00
2023-03-07T17:50:28.295Z,3.84
2023-03-07T17:52:56.341Z,3.77
2023-03-07T17:55:25.179Z,3.71
2023-03-07T17:57:53.448Z,3.61
2023-03-07T18:00:22.740Z,3.49
2023-03-07T18:02:51.313Z,3.37
2023-03-07T18:05:19.604Z,3.27
2023-03-07T18:07:47.686Z,3.23
2023-03-07T18:10:15.542Z,3.17
2023-03-07T18:12:43.289Z,3.11
2023-03-07T18:15:17.196Z,3.01
2023-03-07T18:17:48.887Z,2.90
2023-03-07T18:20:19.900Z,2.84
2023-03-07T18:22:48.617Z,2.77
2023-03-07T18:25:18.295Z,2.69
2023-03-07T18:27:46.833Z,2.59
2023-03-07T18:30:15.166Z,2.60
2023-03-07T18:32:43.344Z,2.58
2023-03-07T18:35:15.373Z,2.45
2023-03-07T18:37:45.083Z,2.35
2023-03-07T18:40:14.180Z,2.23
2023-03-07T18:42:42.580Z,2.11
2023-03-07T18:45:11.177Z,2.05
2023-03-07T18:47:38.998Z,2.02
2023-03-07T18:50:08.922Z,1.92
2023-03-07T18:52:36.735Z,1.83
2023-03-07T18:55:05.042Z,1.77
2023-03-07T18:57:35.438Z,1.73
2023-03-07T19:00:04.540Z,1.64
2023-03-07T19:02:32.528Z,1.56
2023-03-07T19:05:00.621Z,1.54
2023-03-07T19:07:31.190Z,1.51
2023-03-07T19:09:58.968Z,1.40
2023-03-07T19:12:26.774Z,1.37
2023-03-07T19:14:54.868Z,1.36
2023-03-07T19:17:22.975Z,1.37
2023-03-07T19:19:54.332Z,1.38
2023-03-07T19:22:25.365Z,1.28
2023-03-07T19:24:54.977Z,1.24
2023-03-07T19:27:23.133Z,1.20
2023-03-07T19:29:53.317Z,1.21
2023-03-07T19:32:21.180Z,1.31
2023-03-07T19:34:50.565Z,1.25
2023-03-07T19:37:18.500Z,1.21
2023-03-07T19:39:46.291Z,1.18
2023-03-07T19:42:14.050Z,1.12
2023-03-07T19:44:41.848Z,1.01
2023-03-07T19:47:09.682Z,0.94
2023-03-07T19:49:37.533Z,0.93
2023-03-07T19:52:05.598Z,0.89
2023-03-07T19:54:33.602Z,0.86
2023-03-07T19:57:01.436Z,0.84
2023-03-07T19:59:29.229Z,0.78
2023-03-07T20:01:57.064Z,0.74
2023-03-07T20:04:24.893Z,0.72
2023-03-07T20:06:53.154Z,0.69
2023-03-07T20:09:21.053Z,0.71
2023-03-07T20:11:49.017Z,0.80
2023-03-07T20:14:17.001Z,0.77
2023-03-07T20:16:44.873Z,0.64
2023-03-07T20:19:14.035Z,0.64
2023-03-07T20:21:44.261Z,0.68
2023-03-07T20:24:12.855Z,0.67
2023-03-07T20:26:40.842Z,0.63
2023-03-07T20:29:10.775Z,0.64
2023-03-07T20:31:39.802Z,0.63
2023-03-07T20:34:08.310Z,0.61
2023-03-07T20:36:37.987Z,0.71
2023-03-07T20:39:11.923Z,0.72
2023-03-07T20:41:42.387Z,0.69
2023-03-07T20:44:14.766Z,0.64
2023-03-07T20:46:43.158Z,0.53
2023-03-07T20:49:14.310Z,0.47
2023-03-07T20:51:43.409Z,0.45
2023-03-07T20:54:15.489Z,0.40
2023-03-07T20:56:46.436Z,0.35
2023-03-07T20:59:18.106Z,0.31
2023-03-07T21:01:46.716Z,0.21
2023-03-07T21:04:17.700Z,0.14
2023-03-07T21:06:47.524Z,0.13
2023-03-07T21:09:17.992Z,0.10
2023-03-07T21:11:49.019Z,0.05
2023-03-07T21:14:19.782Z,0.14
2023-03-07T21:16:47.906Z,0.19
2023-03-07T21:19:16.251Z,0.25
2023-03-07T21:21:45.042Z,0.29
2023-03-07T21:24:13.116Z,0.34
2023-03-07T21:26:41.654Z,0.47
2023-03-07T21:29:10.799Z,0.49
2023-03-07T21:31:38.952Z,0.43
2023-03-07T21:34:11.367Z,0.41
2023-03-07T21:36:39.736Z,0.42
2023-03-07T21:39:09.967Z,0.47
2023-03-07T21:41:38.010Z,0.52
2023-03-07T21:44:06.360Z,0.58
2023-03-07T21:46:34.581Z,0.75
2023-03-07T21:49:02.955Z,0.84
2023-03-07T21:51:31.318Z,0.83
2023-03-07T21:53:59.998Z,0.69
2023-03-07T21:56:27.950Z,0.59
2023-03-07T21:58:55.973Z,0.63
2023-03-07T22:01:28.677Z,0.66
2023-03-07T22:03:59.200Z,0.65
2023-03-07T22:06:28.490Z,0.70
2023-03-07T22:08:56.424Z,0.82
2023-03-07T22:11:24.352Z,0.84
2023-03-07T22:13:52.158Z,0.86
2023-03-07T22:16:21.073Z,0.88
2023-03-07T22:18:57.019Z,0.90
2023-03-07T22:21:26.677Z,0.86
2023-03-07T22:24:00.962Z,0.80
2023-03-07T22:26:31.657Z,0.79
2023-03-07T22:29:00.029Z,0.79
2023-03-07T22:31:28.310Z,0.76
2023-03-07T22:33:58.961Z,0.76
2023-03-07T22:36:26.801Z,0.87
2023-03-07T22:38:56.235Z,0.89
2023-03-07T22:41:25.570Z,0.89
2023-03-07T22:43:53.958Z,0.85
2023-03-07T22:46:22.874Z,0.83
2023-03-07T22:48:56.417Z,0.86
2023-03-07T22:51:26.088Z,0.85
2023-03-07T22:53:54.631Z,0.83
2023-03-07T22:56:27.524Z,0.77
2023-03-07T22:58:55.897Z,0.79
2023-03-07T23:01:27.279Z,0.89
2023-03-07T23:03:57.706Z,0.89
2023-03-07T23:06:31.321Z,0.87
2023-03-07T23:09:01.969Z,0.78
2023-03-07T23:11:33.271Z,0.69
2023-03-07T23:14:01.290Z,0.62
2023-03-07T23:16:31.606Z,0.48
2023-03-07T23:19:00.500Z,0.41
2023-03-07T23:21:31.751Z,0.44
2023-03-07T23:24:01.946Z,0.50
2023-03-07T23:26:34.617Z,0.61
2023-03-07T23:29:04.618Z,0.61
2023-03-07T23:31:38.863Z,0.67
2023-03-07T23:34:16.772Z,0.79
2023-03-07T23:36:45.290Z,0.91
2023-03-07T23:39:15.284Z,0.93
2023-03-07T23:41:43.275Z,0.87
2023-03-07T23:44:11.728Z,0.81
2023-03-07T23:46:39.799Z,0.90
2023-03-07T23:49:07.560Z,0.95
2023-03-07T23:51:35.404Z,0.92
2023-03-07T23:54:03.310Z,0.95
2023-03-07T23:56:31.090Z,1.00
2023-03-07T23:58:59.109Z,0.95
